createdAt,value
2022-07-26T00:01:31.755Z,2.67
2022-07-26T00:03:59.970Z,2.70
2022-07-26T00:06:27.416Z,3.00
2022-07-26T00:08:54.622Z,2.83
2022-07-26T00:11:22.273Z,2.90
2022-07-26T00:13:49.475Z,3.58
2022-07-26T00:16:16.686Z,3.10
2022-07-26T00:18:44.135Z,3.28
2022-07-26T00:21:11.769Z,3.10
2022-07-26T00:23:39.058Z,3.20
2022-07-26T00:26:06.207Z,2.88
2022-07-26T00:28:33.448Z,2.85
2022-07-26T00:31:01.226Z,2.85
2022-07-26T00:33:28.445Z,2.58
2022-07-26T00:35:55.596Z,2.55
2022-07-26T00:38:22.804Z,2.90
2022-07-26T00:40:49.956Z,2.60
2022-07-26T00:43:17.209Z,2.70
2022-07-26T00:45:44.480Z,2.65
2022-07-26T00:48:11.740Z,2.60
2022-07-26T00:50:38.890Z,2.50
2022-07-26T00:53:06.182Z,2.60
2022-07-26T00:55:33.362Z,2.50
2022-07-26T00:58:03.686Z,2.60
2022-07-26T01:00:30.907Z,3.20
2022-07-26T01:03:00.433Z,2.40
2022-07-26T01:05:28.446Z,2.55
2022-07-26T01:07:55.870Z,2.70
2022-07-26T01:10:23.063Z,2.53
2022-07-26T01:12:50.251Z,2.55
2022-07-26T01:15:17.801Z,2.60
2022-07-26T01:17:45.507Z,2.90
2022-07-26T01:20:13.464Z,2.72
2022-07-26T01:22:41.061Z,2.72
2022-07-26T01:25:08.411Z,2.83
2022-07-26T01:27:39.410Z,2.88
2022-07-26T01:30:10.760Z,2.72
2022-07-26T01:32:38.187Z,3.20
2022-07-26T01:35:06.835Z,2.72
2022-07-26T01:37:34.025Z,3.05
2022-07-26T01:40:01.182Z,2.97
2022-07-26T01:42:28.303Z,3.38
2022-07-26T01:44:55.494Z,2.78
2022-07-26T01:47:22.675Z,2.70
2022-07-26T01:49:49.975Z,3.08
2022-07-26T01:52:17.134Z,3.00
2022-07-26T01:54:44.309Z,2.90
2022-07-26T01:57:11.432Z,3.20
2022-07-26T01:59:38.569Z,2.75
2022-07-26T02:02:05.753Z,3.10
2022-07-26T02:04:51.646Z,3.00
2022-07-26T02:07:18.803Z,2.90
2022-07-26T02:09:46.004Z,3.40
2022-07-26T02:12:14.788Z,3.50
2022-07-26T02:14:41.917Z,3.13
2022-07-26T02:17:09.419Z,3.20
2022-07-26T02:19:37.408Z,3.07
2022-07-26T02:22:05.153Z,3.00
2022-07-26T02:24:32.323Z,3.17
2022-07-26T02:27:00.254Z,3.47
2022-07-26T02:29:28.148Z,3.77
2022-07-26T02:31:56.123Z,3.30
2022-07-26T02:34:23.381Z,3.57
2022-07-26T02:36:50.790Z,3.57
2022-07-26T02:39:18.272Z,3.77
2022-07-26T02:41:45.689Z,3.57
2022-07-26T02:44:12.928Z,3.50
2022-07-26T02:46:40.203Z,3.83
2022-07-26T02:49:07.500Z,3.50
2022-07-26T02:51:34.674Z,3.70
2022-07-26T02:54:01.839Z,3.70
2022-07-26T02:56:29.317Z,3.50
2022-07-26T02:58:56.763Z,3.87
2022-07-26T03:01:24.061Z,3.63
2022-07-26T03:03:51.394Z,3.57
2022-07-26T03:06:19.124Z,3.90
2022-07-26T03:08:46.451Z,3.67
2022-07-26T03:11:13.602Z,3.77
2022-07-26T03:13:40.907Z,3.50
2022-07-26T03:16:08.515Z,3.73
2022-07-26T03:18:35.734Z,3.90
2022-07-26T03:21:03.042Z,3.80
2022-07-26T03:23:33.445Z,4.10
2022-07-26T03:26:01.792Z,3.80
2022-07-26T03:28:32.425Z,3.93
2022-07-26T03:30:59.742Z,3.60
2022-07-26T03:33:26.967Z,3.80
2022-07-26T03:35:54.107Z,4.00
2022-07-26T03:38:22.198Z,3.80
2022-07-26T03:40:49.454Z,3.57
2022-07-26T03:43:18.942Z,3.87
2022-07-26T03:45:48.445Z,3.90
2022-07-26T03:48:15.615Z,3.97
2022-07-26T03:50:43.104Z,4.00
2022-07-26T03:53:10.331Z,3.80
2022-07-26T03:55:56.016Z,4.00
2022-07-26T03:58:23.138Z,3.97
2022-07-26T04:00:50.357Z,3.93
2022-07-26T04:03:17.503Z,4.53
2022-07-26T04:05:49.029Z,4.00
2022-07-26T04:08:16.758Z,3.97
2022-07-26T04:10:53.371Z,4.17
2022-07-26T04:13:20.873Z,3.60
2022-07-26T04:15:47.994Z,4.20
2022-07-26T04:18:15.372Z,3.90
2022-07-26T04:20:43.184Z,4.00
2022-07-26T04:23:11.784Z,4.10
2022-07-26T04:25:41.257Z,3.57
2022-07-26T04:28:09.052Z,4.00
2022-07-26T04:30:36.644Z,4.10
2022-07-26T04:33:04.402Z,3.97
2022-07-26T04:35:31.669Z,4.13
2022-07-26T04:37:58.957Z,4.20
2022-07-26T04:40:28.466Z,4.77
2022-07-26T04:42:56.495Z,4.00
2022-07-26T04:45:23.659Z,3.90
2022-07-26T04:47:51.154Z,3.50
2022-07-26T04:50:19.538Z,4.33
2022-07-26T04:52:47.187Z,4.30
2022-07-26T04:55:14.384Z,3.70
2022-07-26T04:57:41.564Z,3.70
2022-07-26T05:00:24.780Z,4.10
2022-07-26T05:02:55.925Z,4.13
2022-07-26T05:05:24.181Z,4.17
2022-07-26T05:07:55.545Z,4.27
2022-07-26T05:10:23.428Z,4.00
2022-07-26T05:12:50.564Z,4.63
2022-07-26T05:15:18.279Z,4.30
2022-07-26T05:17:45.590Z,4.30
2022-07-26T05:20:14.519Z,4.00
2022-07-26T05:26:12.148Z,4.23
2022-07-26T05:28:39.578Z,4.50
2022-07-26T05:31:07.579Z,5.00
2022-07-26T05:33:34.808Z,4.40
2022-07-26T05:36:01.948Z,4.73
2022-07-26T05:38:29.108Z,5.27
2022-07-26T05:40:56.297Z,5.07
2022-07-26T05:43:23.449Z,5.53
2022-07-26T05:45:51.338Z,4.90
2022-07-26T05:48:18.522Z,5.10
2022-07-26T05:50:46.857Z,4.10
2022-07-26T05:53:14.060Z,4.33
2022-07-26T05:55:41.204Z,3.58
2022-07-26T05:58:08.375Z,3.50
2022-07-26T06:00:35.850Z,3.65
2022-07-26T06:03:21.559Z,2.95
2022-07-26T06:05:49.491Z,3.10
2022-07-26T06:08:16.709Z,2.80
2022-07-26T06:10:43.910Z,2.78
2022-07-26T06:13:11.626Z,2.25
2022-07-26T06:19:01.466Z,2.40
2022-07-26T06:21:28.598Z,2.50
2022-07-26T06:23:55.792Z,2.50
2022-07-26T06:26:23.883Z,2.58
2022-07-26T06:28:51.617Z,2.50
2022-07-26T06:31:19.225Z,2.42
2022-07-26T06:33:46.723Z,2.10
2022-07-26T06:36:14.010Z,1.98
2022-07-26T06:38:41.305Z,1.98
2022-07-26T06:41:08.487Z,1.83
2022-07-26T06:43:35.660Z,2.03
2022-07-26T06:46:02.984Z,1.90
2022-07-26T06:48:30.259Z,2.00
2022-07-26T06:50:57.598Z,1.90
2022-07-26T06:53:24.728Z,1.90
2022-07-26T06:55:51.852Z,1.85
2022-07-26T06:58:18.995Z,1.70
2022-07-26T07:00:46.157Z,1.90
2022-07-26T07:03:13.357Z,1.90
2022-07-26T07:05:40.552Z,2.00
2022-07-26T07:08:07.692Z,1.67
2022-07-26T07:10:34.858Z,1.70
2022-07-26T07:13:01.978Z,1.88
2022-07-26T07:15:29.138Z,1.73
2022-07-26T07:17:56.530Z,1.90
2022-07-26T07:20:23.721Z,1.95
2022-07-26T07:22:50.861Z,2.15
2022-07-26T07:25:18.054Z,2.30
2022-07-26T07:27:50.359Z,2.00
2022-07-26T07:30:17.580Z,1.92
2022-07-26T07:32:44.796Z,2.20
2022-07-26T07:35:12.847Z,1.98
2022-07-26T07:37:53.725Z,2.08
2022-07-26T07:40:22.113Z,1.98
2022-07-26T07:42:49.785Z,1.85
2022-07-26T07:45:17.063Z,1.80
2022-07-26T07:47:44.228Z,2.40
2022-07-26T07:50:13.150Z,2.05
2022-07-26T07:52:40.428Z,2.00
2022-07-26T07:55:40.527Z,2.10
2022-07-26T07:57:55.222Z,1.70
2022-07-26T08:00:27.232Z,1.70
2022-07-26T08:02:54.902Z,1.70
2022-07-26T08:05:22.164Z,1.50
2022-07-26T08:11:12.474Z,1.92
2022-07-26T08:13:42.414Z,1.95
2022-07-26T08:16:13.090Z,1.77
2022-07-26T08:22:04.373Z,1.63
2022-07-26T08:24:36.107Z,2.10
2022-07-26T08:27:03.215Z,1.70
2022-07-26T08:29:30.387Z,1.55
2022-07-26T08:32:34.614Z,1.50
2022-07-26T08:41:18.991Z,1.65
2022-07-26T08:43:52.181Z,1.67
2022-07-26T08:46:24.751Z,1.40
2022-07-26T08:48:53.016Z,1.60
2022-07-26T08:51:20.873Z,1.35
2022-07-26T08:53:48.694Z,1.63
2022-07-26T08:56:15.822Z,1.63
2022-07-26T08:58:43.835Z,1.40
2022-07-26T09:01:12.982Z,1.35
2022-07-26T09:03:41.035Z,1.40
2022-07-26T09:06:18.969Z,1.33
2022-07-26T09:08:47.341Z,1.17
2022-07-26T09:11:33.414Z,1.25
2022-07-26T09:14:01.871Z,1.40
2022-07-26T09:16:29.745Z,1.50
2022-07-26T09:18:57.313Z,1.17
2022-07-26T09:21:28.841Z,1.17
2022-07-26T09:23:56.653Z,1.15
2022-07-26T09:26:25.768Z,1.17
2022-07-26T09:29:03.191Z,1.10
2022-07-26T09:31:30.481Z,1.52
2022-07-26T09:33:59.874Z,1.33
2022-07-26T09:36:27.928Z,1.00
2022-07-26T09:38:57.830Z,1.15
2022-07-26T09:41:25.001Z,1.30
2022-07-26T09:43:54.258Z,1.27
2022-07-26T09:46:22.125Z,1.10
2022-07-26T09:51:36.767Z,1.30
2022-07-26T09:54:04.194Z,1.20
2022-07-26T09:56:43.257Z,1.10
2022-07-26T09:59:10.653Z,1.00
2022-07-26T10:01:37.860Z,1.08
2022-07-26T10:04:05.137Z,0.90
2022-07-26T10:06:32.669Z,0.95
2022-07-26T10:09:00.857Z,1.10
2022-07-26T10:11:29.854Z,0.98
2022-07-26T10:13:57.994Z,1.13
2022-07-26T10:16:32.960Z,1.20
2022-07-26T10:19:04.149Z,1.00
2022-07-26T10:21:32.564Z,1.10
2022-07-26T10:24:03.669Z,1.00
2022-07-26T10:26:36.508Z,0.80
2022-07-26T10:29:18.705Z,1.00
2022-07-26T10:31:49.790Z,1.00
2022-07-26T10:34:31.571Z,1.00
2022-07-26T10:36:59.888Z,0.93
2022-07-26T10:39:27.155Z,0.90
2022-07-26T10:42:02.324Z,0.93
2022-07-26T10:44:33.403Z,0.80
2022-07-26T10:47:03.589Z,0.75
2022-07-26T10:49:38.172Z,1.02
2022-07-26T10:52:11.236Z,1.05
2022-07-26T10:54:57.037Z,0.80
2022-07-26T10:57:28.663Z,1.10
2022-07-26T10:59:57.498Z,0.90
2022-07-26T11:02:28.673Z,0.98
2022-07-26T11:05:13.528Z,1.02
2022-07-26T11:07:52.957Z,1.27
2022-07-26T11:10:27.046Z,1.20
2022-07-26T11:13:03.199Z,1.02
2022-07-26T11:15:30.496Z,1.20
2022-07-26T11:18:14.297Z,1.10
2022-07-26T11:20:42.163Z,1.10
2022-07-26T11:23:21.156Z,1.05
2022-07-26T11:26:06.359Z,0.90
2022-07-26T11:28:52.841Z,1.23
2022-07-26T11:31:22.112Z,1.10
2022-07-26T11:33:50.903Z,1.00
2022-07-26T11:36:41.124Z,1.00
2022-07-26T11:39:09.752Z,0.90
2022-07-26T11:41:37.102Z,1.05
2022-07-26T11:44:04.700Z,1.08
2022-07-26T11:46:33.641Z,1.10
2022-07-26T11:49:01.151Z,0.90
2022-07-26T11:51:28.964Z,1.05
2022-07-26T11:53:59.767Z,0.90
2022-07-26T11:56:30.658Z,0.77
2022-07-26T11:58:58.013Z,0.90
2022-07-26T12:01:25.949Z,1.10
2022-07-26T12:03:53.710Z,0.93
2022-07-26T12:06:22.063Z,1.10
2022-07-26T12:08:54.153Z,1.10
2022-07-26T12:11:24.193Z,1.20
2022-07-26T12:13:55.940Z,1.20
2022-07-26T12:16:43.097Z,0.95
2022-07-26T12:19:11.911Z,1.38
2022-07-26T12:21:49.367Z,1.00
2022-07-26T12:24:35.810Z,0.70
2022-07-26T12:27:13.988Z,1.20
2022-07-26T12:29:43.046Z,1.08
2022-07-26T12:32:14.805Z,1.00
2022-07-26T12:34:42.989Z,1.10
2022-07-26T12:37:14.352Z,1.15
2022-07-26T12:39:42.727Z,1.10
2022-07-26T12:42:22.900Z,1.00
2022-07-26T12:45:01.094Z,1.00
2022-07-26T12:50:50.717Z,1.00
2022-07-26T12:53:51.730Z,1.13
2022-07-26T12:56:21.981Z,1.40
2022-07-26T12:58:49.158Z,1.33
2022-07-26T13:08:07.564Z,1.00
2022-07-26T13:10:35.948Z,1.20
2022-07-26T13:13:03.601Z,1.10
2022-07-26T13:15:36.397Z,0.90
2022-07-26T13:18:05.709Z,0.95
2022-07-26T13:20:32.931Z,1.08
2022-07-26T13:23:49.899Z,0.90
2022-07-26T13:26:17.043Z,1.02
2022-07-26T13:28:44.882Z,0.90
2022-07-26T13:31:17.042Z,1.13
2022-07-26T13:33:44.188Z,0.90
2022-07-26T13:36:11.331Z,1.00
2022-07-26T13:38:38.487Z,1.00
2022-07-26T13:41:05.810Z,0.85
2022-07-26T13:43:32.962Z,0.90
2022-07-26T13:46:00.155Z,1.00
2022-07-26T13:48:27.505Z,0.98
2022-07-26T13:50:55.086Z,1.15
2022-07-26T13:53:22.339Z,1.00
2022-07-26T13:55:49.518Z,1.02
2022-07-26T13:58:16.704Z,0.88
2022-07-26T14:00:43.867Z,1.08
2022-07-26T14:03:11.187Z,0.98
2022-07-26T14:05:38.364Z,0.88
2022-07-26T14:08:05.675Z,0.95
2022-07-26T14:10:33.021Z,0.90
2022-07-26T14:13:00.130Z,1.05
2022-07-26T14:15:27.262Z,1.10
2022-07-26T14:17:54.388Z,1.08
2022-07-26T14:20:22.292Z,1.27
2022-07-26T14:22:53.477Z,1.10
2022-07-26T14:25:21.647Z,1.00
2022-07-26T14:27:48.821Z,1.10
2022-07-26T14:30:15.973Z,1.00
2022-07-26T14:32:43.216Z,1.00
2022-07-26T14:35:10.738Z,1.05
2022-07-26T14:37:43.157Z,1.33
2022-07-26T14:40:13.217Z,1.00
2022-07-26T14:42:40.476Z,1.10
2022-07-26T14:45:08.285Z,1.00
2022-07-26T14:47:35.405Z,1.23
2022-07-26T14:50:06.412Z,0.90
2022-07-26T14:52:34.186Z,0.90
2022-07-26T14:55:01.328Z,1.13
2022-07-26T14:57:28.465Z,1.08
2022-07-26T14:59:55.777Z,1.00
2022-07-26T15:02:23.138Z,1.10
2022-07-26T15:04:50.392Z,0.90
2022-07-26T15:07:17.559Z,1.10
2022-07-26T15:09:44.672Z,0.98
2022-07-26T15:12:11.810Z,1.17
2022-07-26T15:14:39.176Z,1.00
2022-07-26T15:17:06.307Z,0.98
2022-07-26T15:19:33.440Z,1.20
2022-07-26T15:22:02.465Z,1.20
2022-07-26T15:24:30.658Z,1.10
2022-07-26T15:26:57.796Z,1.08
2022-07-26T15:29:24.929Z,1.10
2022-07-26T15:31:52.171Z,1.02
2022-07-26T15:34:19.308Z,1.20
2022-07-26T15:36:46.455Z,1.10
2022-07-26T15:39:17.091Z,1.00
2022-07-26T15:41:45.577Z,0.93
2022-07-26T15:44:13.172Z,1.00
2022-07-26T15:46:41.540Z,1.25
2022-07-26T15:49:08.710Z,0.95
2022-07-26T15:51:37.875Z,1.20
2022-07-26T15:54:06.607Z,1.05
2022-07-26T15:56:33.777Z,1.05
2022-07-26T15:59:00.865Z,1.20
2022-07-26T16:01:28.926Z,1.20
2022-07-26T16:03:56.648Z,1.25
2022-07-26T16:06:23.784Z,1.30
2022-07-26T16:09:15.371Z,1.10
2022-07-26T16:11:38.010Z,1.10
2022-07-26T16:14:05.156Z,1.20
2022-07-26T16:16:32.367Z,1.40
2022-07-26T16:18:59.697Z,1.20
2022-07-26T16:21:26.862Z,1.30
2022-07-26T16:23:53.967Z,1.25
2022-07-26T16:26:21.237Z,1.23
2022-07-26T16:28:48.355Z,1.20
2022-07-26T16:31:15.563Z,1.40
2022-07-26T16:33:46.558Z,1.05
2022-07-26T16:36:14.338Z,1.30
2022-07-26T16:38:41.531Z,1.45
2022-07-26T16:41:08.648Z,1.33
2022-07-26T16:44:06.706Z,1.40
2022-07-26T16:46:34.042Z,1.25
2022-07-26T16:49:01.273Z,1.38
2022-07-26T16:51:28.634Z,1.10
2022-07-26T16:53:55.757Z,1.20
2022-07-26T16:56:22.890Z,1.40
2022-07-26T16:58:50.053Z,1.40
2022-07-26T17:01:17.295Z,1.33
2022-07-26T17:03:44.501Z,1.50
2022-07-26T17:06:11.699Z,1.52
2022-07-26T17:08:39.011Z,1.52
2022-07-26T17:11:06.166Z,1.40
2022-07-26T17:13:33.378Z,1.60
2022-07-26T17:16:01.032Z,1.40
2022-07-26T17:18:28.484Z,1.45
2022-07-26T17:20:55.953Z,1.20
2022-07-26T17:23:23.092Z,1.20
2022-07-26T17:25:50.220Z,1.73
2022-07-26T17:28:17.468Z,1.60
2022-07-26T17:30:45.732Z,1.38
2022-07-26T17:33:12.933Z,1.70
2022-07-26T17:35:40.823Z,1.70
2022-07-26T17:38:07.981Z,1.60
2022-07-26T17:40:35.305Z,1.48
2022-07-26T17:43:02.517Z,1.30
2022-07-26T17:45:29.703Z,1.33
2022-07-26T17:47:56.928Z,1.40
2022-07-26T17:50:36.479Z,1.60
2022-07-26T17:53:04.189Z,1.40
2022-07-26T17:55:31.475Z,1.27
2022-07-26T17:57:58.766Z,1.52
2022-07-26T18:00:29.012Z,2.22
2022-07-26T18:02:56.625Z,1.70
2022-07-26T18:05:29.956Z,1.60
2022-07-26T18:08:00.804Z,2.33
2022-07-26T18:10:28.243Z,1.50
2022-07-26T18:12:55.548Z,1.60
2022-07-26T18:15:22.750Z,1.33
2022-07-26T18:17:49.928Z,1.58
2022-07-26T18:20:17.097Z,1.70
2022-07-26T18:22:45.776Z,1.42
2022-07-26T18:25:17.279Z,1.45
2022-07-26T18:27:44.410Z,1.38
2022-07-26T18:30:11.736Z,1.52
2022-07-26T18:32:38.895Z,1.52
2022-07-26T18:35:06.360Z,1.58
2022-07-26T18:37:33.511Z,1.70
2022-07-26T18:40:00.977Z,1.52
2022-07-26T18:42:28.149Z,1.70
2022-07-26T18:44:55.353Z,1.50
2022-07-26T18:47:22.530Z,1.40
2022-07-26T18:49:50.255Z,1.50
2022-07-26T18:52:28.795Z,1.80
2022-07-26T18:54:59.446Z,1.60
2022-07-26T18:57:26.590Z,1.20
2022-07-26T18:59:53.758Z,1.58
2022-07-26T19:02:20.928Z,1.77
2022-07-26T19:04:48.084Z,1.63
2022-07-26T19:07:15.225Z,1.52
2022-07-26T19:09:42.437Z,1.40
2022-07-26T19:12:09.764Z,1.80
2022-07-26T19:14:36.936Z,1.80
2022-07-26T19:17:05.840Z,1.90
2022-07-26T19:19:33.060Z,1.80
2022-07-26T19:22:00.178Z,1.65
2022-07-26T19:24:27.303Z,1.70
2022-07-26T19:26:54.415Z,1.40
2022-07-26T19:29:21.558Z,1.85
2022-07-26T19:31:48.730Z,1.40
2022-07-26T19:34:15.918Z,1.30
2022-07-26T19:36:43.136Z,1.50
2022-07-26T19:39:10.598Z,1.50
2022-07-26T19:45:00.766Z,1.50
2022-07-26T19:47:29.748Z,1.65
2022-07-26T19:49:57.364Z,1.30
2022-07-26T19:52:24.499Z,1.40
2022-07-26T19:54:51.849Z,1.50
2022-07-26T19:57:19.457Z,1.60
2022-07-26T19:59:47.343Z,1.70
2022-07-26T20:02:14.982Z,1.95
2022-07-26T20:04:45.881Z,1.73
2022-07-26T20:07:19.111Z,1.60
2022-07-26T20:09:50.098Z,1.60
2022-07-26T20:12:17.510Z,1.60
2022-07-26T20:14:45.266Z,1.52
2022-07-26T20:17:13.289Z,1.60
2022-07-26T20:19:41.259Z,1.70
2022-07-26T20:22:08.391Z,1.80
2022-07-26T20:24:35.557Z,2.03
2022-07-26T20:27:02.642Z,2.50
2022-07-26T20:29:29.862Z,2.22
2022-07-26T20:31:56.969Z,2.53
2022-07-26T20:34:24.108Z,2.60
2022-07-26T20:36:53.450Z,2.17
2022-07-26T20:39:20.840Z,2.53
2022-07-26T20:41:48.017Z,2.90
2022-07-26T20:44:15.117Z,2.92
2022-07-26T20:46:42.305Z,2.97
2022-07-26T20:49:10.272Z,3.15
2022-07-26T20:51:38.022Z,2.80
2022-07-26T20:54:05.806Z,2.88
2022-07-26T20:56:33.106Z,3.10
2022-07-26T20:59:02.227Z,2.83
2022-07-26T21:01:30.433Z,3.10
2022-07-26T21:03:58.015Z,3.00
2022-07-26T21:06:25.635Z,3.00
2022-07-26T21:08:57.656Z,2.97
2022-07-26T21:11:24.876Z,2.95
2022-07-26T21:13:53.109Z,3.05
2022-07-26T21:16:20.492Z,3.08
2022-07-26T21:18:52.696Z,3.20
2022-07-26T21:21:20.367Z,3.33
2022-07-26T21:23:47.520Z,2.72
2022-07-26T21:26:14.645Z,3.17
2022-07-26T21:28:41.913Z,3.15
2022-07-26T21:31:09.054Z,3.08
2022-07-26T21:33:36.231Z,3.00
2022-07-26T21:36:03.370Z,2.75
2022-07-26T21:38:31.982Z,3.25
2022-07-26T21:40:59.651Z,3.05
2022-07-26T21:43:27.042Z,2.88
2022-07-26T21:45:54.251Z,3.53
2022-07-26T21:48:21.920Z,3.10
2022-07-26T21:50:49.066Z,3.03
2022-07-26T21:53:16.265Z,3.22
2022-07-26T21:55:43.528Z,3.03
2022-07-26T21:58:10.778Z,3.08
2022-07-26T22:00:39.196Z,3.30
2022-07-26T22:03:07.121Z,3.00
2022-07-26T22:05:42.421Z,3.20
2022-07-26T22:08:11.185Z,3.13
2022-07-26T22:10:44.282Z,3.10
2022-07-26T22:13:12.599Z,3.00
2022-07-26T22:15:39.750Z,3.08
2022-07-26T22:18:09.579Z,3.50
2022-07-26T22:20:37.021Z,2.88
2022-07-26T22:23:08.868Z,3.40
2022-07-26T22:25:36.446Z,3.13
2022-07-26T22:28:04.367Z,3.38
2022-07-26T22:30:31.530Z,3.17
2022-07-26T22:33:02.857Z,3.10
2022-07-26T22:35:33.490Z,2.95
2022-07-26T22:38:04.954Z,3.00
2022-07-26T22:40:32.934Z,3.20
2022-07-26T22:43:00.271Z,2.90
2022-07-26T22:45:27.779Z,2.83
2022-07-26T22:47:56.156Z,3.15
2022-07-26T22:50:24.818Z,2.97
2022-07-26T22:52:52.202Z,2.80
2022-07-26T22:55:19.346Z,2.80
2022-07-26T22:57:46.539Z,2.80
2022-07-26T23:00:14.682Z,3.10
2022-07-26T23:02:41.882Z,3.00
2022-07-26T23:05:10.029Z,2.85
2022-07-26T23:07:37.783Z,3.22
2022-07-26T23:10:06.116Z,3.10
2022-07-26T23:12:33.751Z,2.70
2022-07-26T23:15:00.885Z,2.90
2022-07-26T23:17:28.023Z,2.55
2022-07-26T23:19:55.195Z,2.83
2022-07-26T23:22:22.421Z,2.83
2022-07-26T23:24:49.584Z,2.60
2022-07-26T23:27:19.969Z,2.88
2022-07-26T23:29:48.224Z,2.92
2022-07-26T23:32:16.230Z,2.73
2022-07-26T23:34:43.445Z,3.10
2022-07-26T23:37:10.564Z,2.80
2022-07-26T23:39:37.694Z,2.80
2022-07-26T23:42:04.897Z,2.40
2022-07-26T23:44:32.041Z,2.83
2022-07-26T23:46:59.556Z,2.80
2022-07-26T23:49:26.776Z,2.63
2022-07-26T23:51:53.939Z,2.80
2022-07-26T23:54:21.123Z,2.50
2022-07-26T23:56:48.316Z,2.83
2022-07-26T23:59:15.834Z,2.80
